createdAt,value
2023-03-29T00:02:04.987Z,54.00
2023-03-29T00:04:31.878Z,54.00
2023-03-29T00:07:04.646Z,53.90
2023-03-29T00:09:33.264Z,53.80
2023-03-29T00:12:01.301Z,53.80
2023-03-29T00:14:30.462Z,53.80
2023-03-29T00:16:58.519Z,54.00
2023-03-29T00:19:25.570Z,54.00
2023-03-29T00:21:52.529Z,53.90
2023-03-29T00:24:21.048Z,53.80
2023-03-29T00:26:47.968Z,53.70
2023-03-29T00:29:14.716Z,53.70
2023-03-29T00:31:41.439Z,53.80
2023-03-29T00:34:08.217Z,54.00
2023-03-29T00:36:35.967Z,54.10
2023-03-29T00:39:02.669Z,54.10
2023-03-29T00:41:29.385Z,54.00
2023-03-29T00:44:02.003Z,54.00
2023-03-29T00:46:30.513Z,54.00
2023-03-29T00:49:13.874Z,54.00
2023-03-29T00:51:42.604Z,54.00
2023-03-29T00:54:14.649Z,54.40
2023-03-29T00:56:46.178Z,54.70
2023-03-29T00:59:21.596Z,54.30
2023-03-29T01:01:54.770Z,54.00
2023-03-29T01:04:36.842Z,54.00
2023-03-29T01:07:21.287Z,53.80
2023-03-29T01:09:59.175Z,53.80
2023-03-29T01:12:35.985Z,53.80
2023-03-29T01:15:06.938Z,53.70
2023-03-29T01:17:33.742Z,53.70
2023-03-29T01:20:43.389Z,53.60
2023-03-29T01:23:37.905Z,53.90
2023-03-29T01:26:23.507Z,53.90
2023-03-29T01:28:53.285Z,53.60
2023-03-29T01:31:28.426Z,53.50
2023-03-29T01:34:04.944Z,53.60
2023-03-29T01:36:41.163Z,53.80
2023-03-29T01:39:08.407Z,53.70
2023-03-29T01:41:59.907Z,53.80
2023-03-29T01:44:51.952Z,53.90
2023-03-29T01:47:34.553Z,53.90
2023-03-29T01:50:36.848Z,54.00
2023-03-29T01:53:18.983Z,54.40
2023-03-29T01:55:53.597Z,54.20
2023-03-29T01:58:25.204Z,54.20
2023-03-29T02:00:55.223Z,54.20
2023-03-29T02:03:26.578Z,54.10
2023-03-29T02:05:55.268Z,54.10
2023-03-29T02:08:23.312Z,54.10
2023-03-29T02:10:51.817Z,54.00
2023-03-29T02:13:19.541Z,54.10
2023-03-29T02:15:49.383Z,54.40
2023-03-29T02:18:17.893Z,54.30
2023-03-29T02:20:48.716Z,54.20
2023-03-29T02:23:21.472Z,54.30
2023-03-29T02:25:50.505Z,54.50
2023-03-29T02:28:17.384Z,54.50
2023-03-29T02:30:53.858Z,54.60
2023-03-29T02:33:46.022Z,54.80
2023-03-29T02:36:22.487Z,54.90
2023-03-29T02:38:49.506Z,54.90
2023-03-29T02:41:17.777Z,55.00
2023-03-29T02:43:47.628Z,55.00
2023-03-29T02:46:16.102Z,55.10
2023-03-29T02:48:45.581Z,55.20
2023-03-29T02:51:20.048Z,55.30
2023-03-29T02:54:00.164Z,55.30
2023-03-29T02:56:27.068Z,55.20
2023-03-29T02:58:53.768Z,55.30
2023-03-29T03:01:20.714Z,55.20
2023-03-29T03:03:48.157Z,55.30
2023-03-29T03:06:15.250Z,55.20
2023-03-29T03:08:42.273Z,55.20
2023-03-29T03:11:08.932Z,55.40
2023-03-29T03:13:35.635Z,55.40
2023-03-29T03:16:03.228Z,55.20
2023-03-29T03:18:30.086Z,55.30
2023-03-29T03:21:04.658Z,55.20
2023-03-29T03:23:32.024Z,55.20
2023-03-29T03:25:59.070Z,55.30
2023-03-29T03:28:27.316Z,55.30
2023-03-29T03:30:54.357Z,55.30
2023-03-29T03:33:21.115Z,55.20
2023-03-29T03:35:48.015Z,55.30
2023-03-29T03:38:15.262Z,55.50
2023-03-29T03:40:42.561Z,55.70
2023-03-29T03:43:09.454Z,55.60
2023-03-29T03:45:36.280Z,55.60
2023-03-29T03:48:03.173Z,55.70
2023-03-29T03:50:29.881Z,55.50
2023-03-29T03:52:56.598Z,55.50
2023-03-29T03:55:23.956Z,55.60
2023-03-29T03:57:52.016Z,55.60
2023-03-29T04:00:22.815Z,55.40
2023-03-29T04:02:49.876Z,55.40
2023-03-29T04:05:17.218Z,55.40
2023-03-29T04:07:43.964Z,55.50
2023-03-29T04:10:11.173Z,55.50
2023-03-29T04:12:38.900Z,55.50
2023-03-29T04:15:07.177Z,55.60
2023-03-29T04:17:34.318Z,55.70
2023-03-29T04:20:02.235Z,55.70
2023-03-29T04:22:29.099Z,55.60
2023-03-29T04:24:56.212Z,55.70
2023-03-29T04:27:23.041Z,55.80
2023-03-29T04:29:49.711Z,55.80
2023-03-29T04:32:16.434Z,55.60
2023-03-29T04:34:43.116Z,55.60
2023-03-29T04:37:10.097Z,55.60
2023-03-29T04:39:37.598Z,55.60
2023-03-29T04:42:05.226Z,55.70
2023-03-29T04:44:35.147Z,55.70
2023-03-29T04:47:02.961Z,55.60
2023-03-29T04:49:29.647Z,55.70
2023-03-29T04:51:57.113Z,55.70
2023-03-29T04:54:23.966Z,55.60
2023-03-29T04:56:52.226Z,55.70
2023-03-29T04:59:19.098Z,55.80
2023-03-29T05:01:45.903Z,55.70
2023-03-29T05:04:13.882Z,55.80
2023-03-29T05:06:41.256Z,55.80
2023-03-29T05:09:08.828Z,55.70
2023-03-29T05:11:36.237Z,55.70
2023-03-29T05:14:03.445Z,55.80
2023-03-29T05:16:30.303Z,55.90
2023-03-29T05:18:57.587Z,55.90
2023-03-29T05:21:26.154Z,56.00
2023-03-29T05:23:53.324Z,56.00
2023-03-29T05:26:22.328Z,56.00
2023-03-29T05:28:49.868Z,55.80
2023-03-29T05:31:17.231Z,55.90
2023-03-29T05:33:44.169Z,56.00
2023-03-29T05:36:14.091Z,55.90
2023-03-29T05:38:42.663Z,55.80
2023-03-29T05:41:10.768Z,55.80
2023-03-29T05:43:37.447Z,55.60
2023-03-29T05:46:04.449Z,55.70
2023-03-29T05:48:37.333Z,55.70
2023-03-29T05:51:05.458Z,55.70
2023-03-29T05:53:32.283Z,55.60
2023-03-29T05:55:59.942Z,55.60
2023-03-29T05:58:28.446Z,55.50
2023-03-29T06:00:55.218Z,55.60
2023-03-29T06:03:27.316Z,55.60
2023-03-29T06:06:05.072Z,55.70
2023-03-29T06:08:33.395Z,55.70
2023-03-29T06:11:04.605Z,55.60
2023-03-29T06:13:34.027Z,55.60
2023-03-29T06:16:01.493Z,55.60
2023-03-29T06:18:29.318Z,55.70
2023-03-29T06:20:56.118Z,55.80
2023-03-29T06:23:23.311Z,55.80
2023-03-29T06:25:55.198Z,55.90
2023-03-29T06:28:23.933Z,56.10
2023-03-29T06:30:50.741Z,56.10
2023-03-29T06:33:18.737Z,56.10
2023-03-29T06:35:48.069Z,56.30
2023-03-29T06:38:15.502Z,56.40
2023-03-29T06:40:44.513Z,56.50
2023-03-29T06:43:11.244Z,56.70
2023-03-29T06:45:38.956Z,57.00
2023-03-29T06:48:07.839Z,57.20
2023-03-29T06:50:35.447Z,57.30
2023-03-29T06:53:02.990Z,57.50
2023-03-29T06:55:31.603Z,57.80
2023-03-29T06:58:00.936Z,58.10
2023-03-29T07:00:29.924Z,58.20
2023-03-29T07:02:59.366Z,58.50
2023-03-29T07:05:27.404Z,58.90
2023-03-29T07:08:11.227Z,59.00
2023-03-29T07:10:43.139Z,59.10
2023-03-29T07:13:14.078Z,59.20
2023-03-29T07:15:41.587Z,59.60
2023-03-29T07:18:09.879Z,59.70
2023-03-29T07:20:38.840Z,59.90
2023-03-29T07:23:06.847Z,60.10
2023-03-29T07:25:34.026Z,60.20
2023-03-29T07:28:00.967Z,60.40
2023-03-29T07:30:31.604Z,60.50
2023-03-29T07:33:00.496Z,60.70
2023-03-29T07:35:28.348Z,60.90
2023-03-29T07:37:55.951Z,60.90
2023-03-29T07:40:23.946Z,61.00
2023-03-29T07:42:53.965Z,61.10
2023-03-29T07:45:26.750Z,61.10
2023-03-29T07:47:57.798Z,61.20
2023-03-29T07:50:25.318Z,61.50
2023-03-29T07:52:53.556Z,61.60
2023-03-29T07:55:22.178Z,62.20
2023-03-29T07:57:49.500Z,61.60
2023-03-29T08:00:17.217Z,61.70
2023-03-29T08:02:45.430Z,61.70
2023-03-29T08:05:23.241Z,61.70
2023-03-29T08:07:56.441Z,61.70
2023-03-29T08:10:23.254Z,61.50
2023-03-29T08:12:53.808Z,61.40
2023-03-29T08:15:20.692Z,61.40
2023-03-29T08:17:47.385Z,61.60
2023-03-29T08:25:11.941Z,61.80
2023-03-29T08:27:40.796Z,61.70
2023-03-29T08:30:09.413Z,61.90
2023-03-29T08:32:36.974Z,61.70
2023-03-29T08:35:05.290Z,61.50
2023-03-29T08:37:32.619Z,61.80
2023-03-29T08:40:00.898Z,62.00
2023-03-29T08:42:37.944Z,62.20
2023-03-29T08:48:03.825Z,62.30
2023-03-29T08:50:52.872Z,62.40
2023-03-29T08:53:44.136Z,62.40
2023-03-29T08:56:27.734Z,62.30
2023-03-29T08:58:58.644Z,62.50
2023-03-29T09:01:31.672Z,62.60
2023-03-29T09:11:58.970Z,62.70
2023-03-29T09:14:53.613Z,62.90
2023-03-29T09:17:44.562Z,62.90
2023-03-29T09:20:21.245Z,63.20
2023-03-29T09:23:28.443Z,63.00
2023-03-29T09:28:36.043Z,63.20
2023-03-29T09:31:11.367Z,63.30
2023-03-29T09:33:59.905Z,63.30
2023-03-29T09:36:32.701Z,63.70
2023-03-29T09:41:41.180Z,63.40
2023-03-29T09:52:12.906Z,64.10
2023-03-29T09:54:39.954Z,64.20
2023-03-29T09:57:09.165Z,64.20
2023-03-29T09:59:36.870Z,64.30
2023-03-29T10:02:12.874Z,64.30
2023-03-29T10:04:42.548Z,64.40
2023-03-29T10:07:20.654Z,64.50
2023-03-29T10:09:51.904Z,64.80
2023-03-29T10:12:20.432Z,64.60
2023-03-29T10:14:54.134Z,64.70
2023-03-29T10:17:24.419Z,64.70
2023-03-29T10:20:04.335Z,64.70
2023-03-29T10:22:37.698Z,64.80
2023-03-29T10:25:13.820Z,64.90
2023-03-29T10:27:43.605Z,65.20
2023-03-29T10:30:19.565Z,65.10
2023-03-29T10:32:47.059Z,65.20
2023-03-29T10:35:24.115Z,65.20
2023-03-29T10:37:55.766Z,65.60
2023-03-29T10:40:32.412Z,65.60
2023-03-29T10:55:23.394Z,65.70
2023-03-29T11:08:39.887Z,66.50
2023-03-29T11:11:22.247Z,66.50
2023-03-29T11:14:11.425Z,66.50
2023-03-29T11:22:35.518Z,66.70
2023-03-29T11:25:10.281Z,67.10
2023-03-29T11:28:09.631Z,66.60
2023-03-29T11:30:47.400Z,66.70
2023-03-29T11:33:36.134Z,66.90
2023-03-29T11:36:17.702Z,67.00
2023-03-29T11:39:00.701Z,67.10
2023-03-29T11:41:39.833Z,67.00
2023-03-29T11:44:17.650Z,67.10
2023-03-29T11:46:48.208Z,67.10
2023-03-29T11:49:26.521Z,67.10
2023-03-29T11:52:20.958Z,67.20
2023-03-29T11:55:10.202Z,67.00
2023-03-29T12:00:20.523Z,66.90
2023-03-29T12:03:08.923Z,67.00
2023-03-29T12:05:42.909Z,66.80
2023-03-29T12:08:17.327Z,66.70
2023-03-29T12:13:37.919Z,66.80
2023-03-29T12:26:19.566Z,66.60
2023-03-29T12:28:55.326Z,66.20
2023-03-29T12:31:33.079Z,66.30
2023-03-29T12:34:17.569Z,66.20
2023-03-29T12:37:00.464Z,66.30
2023-03-29T12:42:18.604Z,66.90
2023-03-29T12:44:49.572Z,66.60
2023-03-29T12:47:23.557Z,66.70
2023-03-29T12:49:59.287Z,66.60
2023-03-29T12:52:34.630Z,66.60
2023-03-29T13:55:24.122Z,66.80
2023-03-29T13:58:00.179Z,64.90
2023-03-29T14:00:38.772Z,65.00
2023-03-29T14:03:07.536Z,65.00
2023-03-29T14:05:38.272Z,64.80
2023-03-29T14:08:08.477Z,64.80
2023-03-29T14:10:42.014Z,65.00
2023-03-29T14:13:17.796Z,65.00
2023-03-29T14:15:50.465Z,65.20
2023-03-29T14:18:21.249Z,65.20
2023-03-29T14:33:14.813Z,65.20
2023-03-29T14:40:39.847Z,65.40
2023-03-29T14:43:08.254Z,65.40
2023-03-29T14:45:35.626Z,65.40
2023-03-29T14:48:02.652Z,65.40
2023-03-29T14:50:31.509Z,65.00
2023-03-29T14:57:55.336Z,64.90
2023-03-29T15:00:26.865Z,64.60
2023-03-29T15:03:04.086Z,64.50
2023-03-29T15:05:40.189Z,64.40
2023-03-29T15:08:12.456Z,64.20
2023-03-29T15:10:42.340Z,63.60
2023-03-29T15:15:44.708Z,63.80
2023-03-29T15:23:20.982Z,63.50
2023-03-29T15:25:53.574Z,63.80
2023-03-29T15:28:32.514Z,63.50
2023-03-29T15:31:19.742Z,63.30
2023-03-29T15:33:46.904Z,63.20
2023-03-29T15:36:14.628Z,63.20
2023-03-29T15:38:45.108Z,63.10
2023-03-29T15:53:36.281Z,62.90
2023-03-29T15:56:07.509Z,62.60
2023-03-29T15:58:41.580Z,62.30
2023-03-29T16:01:35.420Z,62.40
2023-03-29T16:04:07.814Z,62.10
2023-03-29T16:06:34.885Z,62.20
2023-03-29T16:09:02.039Z,62.10
2023-03-29T16:11:28.804Z,62.20
2023-03-29T16:13:56.435Z,62.20
2023-03-29T16:16:23.467Z,62.10
2023-03-29T16:18:50.619Z,62.10
2023-03-29T16:21:19.111Z,62.10
2023-03-29T16:23:46.525Z,62.00
2023-03-29T16:26:16.255Z,62.10
2023-03-29T16:28:43.364Z,62.20
2023-03-29T16:31:11.874Z,62.40
2023-03-29T16:33:39.519Z,62.30
2023-03-29T16:36:07.358Z,62.30
2023-03-29T16:38:34.256Z,62.80
2023-03-29T16:41:01.732Z,62.60
2023-03-29T16:43:28.902Z,62.70
2023-03-29T18:31:50.626Z,62.90
2023-03-29T18:34:17.550Z,62.70
2023-03-29T18:36:44.239Z,63.20
2023-03-29T18:39:10.943Z,63.30
2023-03-29T18:41:37.815Z,63.20
2023-03-29T18:44:05.007Z,63.30
2023-03-29T18:46:31.966Z,63.30
2023-03-29T18:49:01.469Z,63.20
2023-03-29T18:51:28.374Z,63.30
2023-03-29T18:53:56.060Z,63.20
2023-03-29T18:56:23.164Z,63.30
2023-03-29T18:58:50.047Z,63.30
2023-03-29T19:01:16.875Z,63.40
2023-03-29T19:03:43.840Z,63.40
2023-03-29T19:06:11.788Z,63.40
2023-03-29T19:08:41.159Z,63.40
2023-03-29T19:11:10.574Z,63.40
2023-03-29T19:13:37.507Z,63.40
2023-03-29T19:16:04.895Z,63.50
2023-03-29T19:18:33.083Z,63.60
2023-03-29T19:21:00.055Z,63.60
2023-03-29T19:23:28.277Z,63.60
2023-03-29T19:25:57.297Z,63.70
2023-03-29T19:28:24.884Z,63.70
2023-03-29T19:30:51.819Z,63.80
2023-03-29T19:33:19.894Z,63.80
2023-03-29T19:35:47.160Z,63.70
2023-03-29T19:38:13.975Z,63.80
2023-03-29T19:40:45.497Z,63.90
2023-03-29T19:43:16.406Z,64.10
2023-03-29T19:45:48.093Z,64.10
2023-03-29T19:48:22.537Z,64.30
2023-03-29T19:50:50.552Z,64.30
2023-03-29T19:53:17.475Z,64.40
2023-03-29T19:55:45.372Z,64.50
2023-03-29T19:58:12.923Z,64.50
2023-03-29T20:00:39.903Z,64.70
2023-03-29T20:03:11.202Z,64.90
2023-03-29T20:05:38.881Z,65.00
2023-03-29T20:08:06.660Z,65.10
2023-03-29T20:10:34.147Z,65.20
2023-03-29T20:13:01.841Z,65.20
2023-03-29T20:15:28.935Z,65.20
2023-03-29T20:17:59.318Z,65.20
2023-03-29T20:20:27.010Z,66.00
2023-03-29T20:23:04.678Z,65.50
2023-03-29T20:25:35.606Z,65.60
2023-03-29T20:28:02.849Z,65.70
2023-03-29T20:30:29.723Z,65.80
2023-03-29T20:32:57.162Z,65.90
2023-03-29T20:35:24.938Z,66.10
2023-03-29T20:37:51.667Z,66.20
2023-03-29T20:40:18.545Z,66.30
2023-03-29T20:42:46.360Z,66.40
2023-03-29T20:45:18.392Z,66.40
2023-03-29T20:47:57.588Z,66.50
2023-03-29T20:50:28.565Z,66.70
2023-03-29T20:53:03.536Z,66.70
2023-03-29T20:55:33.326Z,66.80
2023-03-29T20:58:01.564Z,66.80
2023-03-29T21:00:30.280Z,66.80
2023-03-29T21:03:00.568Z,66.80
2023-03-29T21:05:28.982Z,66.50
2023-03-29T21:07:55.865Z,66.60
2023-03-29T21:10:23.887Z,66.80
2023-03-29T21:12:52.007Z,66.90
2023-03-29T21:15:19.775Z,66.90
2023-03-29T21:17:47.561Z,66.80
2023-03-29T21:20:15.280Z,66.90
2023-03-29T21:22:43.120Z,66.90
2023-03-29T21:25:12.494Z,67.00
2023-03-29T21:27:39.223Z,67.00
2023-03-29T21:30:08.619Z,67.00
2023-03-29T21:32:36.142Z,67.00
2023-03-29T21:35:02.835Z,66.90
2023-03-29T21:37:29.556Z,66.90
2023-03-29T21:39:56.246Z,66.90
2023-03-29T21:42:22.968Z,66.90
2023-03-29T21:44:49.737Z,66.80
2023-03-29T21:47:16.432Z,66.80
2023-03-29T21:49:43.153Z,66.70
2023-03-29T21:52:09.907Z,66.60
2023-03-29T21:54:36.627Z,66.50
2023-03-29T21:57:03.427Z,66.40
2023-03-29T21:59:30.781Z,66.30
2023-03-29T22:01:58.618Z,66.20
2023-03-29T22:04:36.045Z,66.20
2023-03-29T22:07:04.968Z,66.00
2023-03-29T22:09:34.764Z,65.90
2023-03-29T22:12:01.680Z,65.90
2023-03-29T22:14:30.216Z,65.70
2023-03-29T22:16:57.273Z,65.70
2023-03-29T22:19:24.038Z,65.50
2023-03-29T22:21:51.411Z,65.40
2023-03-29T22:24:18.495Z,65.10
2023-03-29T22:26:45.249Z,65.00
2023-03-29T22:29:12.263Z,64.90
2023-03-29T22:31:39.467Z,64.90
2023-03-29T22:34:06.860Z,64.90
